map of OHD home
Great Circle Mapper logo
OHD - Airport
Location
City:  Ohrid, Republic of Macedonia
Name:Ohrid St. Paul the Apostle Airport
ICAO / IATA:LWOH / OHD

Details
Type:Airport (Aerodrome, Airfield)
Use:Public/Civil
Latitude:4110'48"N (41.179956)
Longitude:2044'32"E (20.742325)
Datum:WGS 1984
Elevation:2313 ft (705 m)
Runways:1
Longest:8366 × 140 ft (2550 × 42.5 m), paved

Time
Time Zone:UTC+1 (DST+2)
Local Time:

Weather
METAR:LWOH 231200Z 15005KT 9999 FEW040 28/15 Q1017
TAF:LWOH 231130Z 2312/2412 18008KT 9999 FEW00050= TAF MMAA 231133Z 2312/2418 03005KT 5SM -RA SCT015CB BKN070 TX31/2318Z TN23/2312Z
TEMPO 2312/2316 5SM TSRA
FM231600 16010KT P6SM VC TS SCT020 OVC100
FM232100 15012KT P6SM BKN015CB OVC070
TEMPO 2321/2401 2SM TSRA
FM240300 30005KT 5SM RA SCT015CB OVC070
TEMPO 2403/2407 5SM 3SM TSRA
FM240800 02005KT P6SM SCT020 BKN100
TEMPO 2410/2414 5SM RA

Related Locations
Nearby:
Farthest:CHT: 11545 mi / 18580 km
Waitangi [Tuuta], Chatham Islands, NZ

Find:

   beyond  
but within

Other Information
Maps:
NOTAMs:
Links:
Sources:

  
flag of Republic of Macedonia   

Sectional Chart

Flight Planning
at skyvector.com

Satellite Image

Google Maps Satellite View

 

Copyright © 2004-2014 Karl L. Swartz. All rights reserved.
The Great Circle Mapper name and logo are trademarks of the Great Circle Mapper.
All other trademarks mentioned herein belong to their respective owners.
Please see credits for attibutions and further copyright information.

  Follow gcmap on Facebook Follow gcmap on Twitter

hCard Microformat

Geo Microformat